Time;durP1;ratioP1;P1;durP2;ratioP2;P2;SDS_P1;SDS_P2;PMS_P1;PMS_P2;Temp;Humidity;BMP_temperature;BMP_pressure;BME280_temperature;BME280_humidity;BME280_pressure;Samples;Min_cycle;Max_cycle;Signal;HPM_P1;HPM_P2
2022/11/06 00:00:38;;;;;;;14.43;7.57;;;5.70;99.90;;;;;;5021032;28;20159;-67
2022/11/06 00:03:05;;;;;;;17.27;7.40;;;5.60;99.90;;;;;;5021735;28;20124;-66
2022/11/06 00:08:25;;;;;;;16.35;7.20;;;5.50;99.90;;;;;;5019253;28;20052;-66
2022/11/06 00:10:50;;;;;;;15.90;7.78;;;5.50;99.90;;;;;;5013393;28;20484;-66
2022/11/06 00:13:16;;;;;;;16.50;8.05;;;5.40;99.90;;;;;;5016556;28;20041;-65
2022/11/06 00:15:41;;;;;;;15.95;7.72;;;5.40;99.90;;;;;;5012779;28;20557;-66
2022/11/06 00:18:07;;;;;;;15.93;7.60;;;5.40;99.90;;;;;;5017256;28;20095;-66
2022/11/06 00:20:33;;;;;;;18.63;8.10;;;5.50;99.90;;;;;;5022766;28;20030;-66
2022/11/06 00:22:59;;;;;;;16.08;7.85;;;5.50;99.90;;;;;;5018698;28;20044;-64
2022/11/06 00:25:25;;;;;;;16.55;7.40;;;5.50;99.90;;;;;;5015793;28;20388;-66
2022/11/06 00:27:50;;;;;;;16.63;7.35;;;5.60;99.90;;;;;;5018395;28;20026;-66
2022/11/06 00:30:18;;;;;;;14.82;6.95;;;5.50;99.90;;;;;;5015450;28;20414;-66
2022/11/06 00:32:44;;;;;;;14.25;6.78;;;5.50;99.90;;;;;;5017648;28;20192;-66
2022/11/06 00:35:09;;;;;;;13.23;6.50;;;5.50;99.90;;;;;;5020451;28;20033;-66
2022/11/06 00:37:35;;;;;;;15.02;7.45;;;5.50;99.90;;;;;;5023398;28;20029;-67
2022/11/06 00:40:01;;;;;;;18.48;8.02;;;5.50;99.90;;;;;;5017465;28;20036;-66
2022/11/06 00:42:26;;;;;;;15.93;7.00;;;5.50;99.90;;;;;;5022059;28;20044;-66
2022/11/06 00:44:52;;;;;;;19.10;6.97;;;5.50;99.90;;;;;;5026193;28;20033;-66
2022/11/06 00:47:17;;;;;;;14.52;6.55;;;5.50;99.90;;;;;;5024932;28;20084;-66
2022/11/06 00:49:43;;;;;;;16.00;6.68;;;5.50;99.90;;;;;;5034755;28;20036;-66
2022/11/06 00:52:08;;;;;;;18.55;6.97;;;5.40;99.90;;;;;;5029364;28;20064;-66
2022/11/06 00:54:34;;;;;;;15.55;6.55;;;5.40;99.90;;;;;;5033450;28;20472;-66
2022/11/06 00:56:59;;;;;;;11.57;6.13;;;5.40;99.90;;;;;;5035246;28;20409;-65
2022/11/06 00:59:25;;;;;;;18.88;6.30;;;5.30;99.90;;;;;;5024117;28;20035;-67
2022/11/06 01:01:51;;;;;;;12.93;6.90;;;5.30;99.90;;;;;;5002038;28;20045;-66
2022/11/06 01:04:19;;;;;;;19.02;6.55;;;5.30;99.90;;;;;;4992153;28;20097;-67
2022/11/06 01:06:47;;;;;;;18.08;6.45;;;5.30;99.90;;;;;;5027599;28;20411;-66
2022/11/06 01:09:15;;;;;;;13.15;6.57;;;5.40;99.90;;;;;;5020724;28;20029;-66
2022/11/06 01:11:48;;;;;;;22.70;7.75;;;5.40;99.90;;;;;;5021602;28;20037;-67
2022/11/06 01:14:15;;;;;;;12.25;6.07;;;5.40;99.90;;;;;;5018857;28;20494;-65
2022/11/06 01:16:43;;;;;;;17.48;7.15;;;5.30;99.90;;;;;;5018531;28;20049;-66
2022/11/06 01:19:11;;;;;;;16.55;7.05;;;5.30;99.90;;;;;;5021077;28;20104;-66
2022/11/06 01:21:40;;;;;;;18.90;6.60;;;5.30;99.90;;;;;;5020439;28;20037;-66
2022/11/06 01:24:09;;;;;;;15.32;6.53;;;5.20;99.90;;;;;;5010966;28;20066;-67
2022/11/06 01:26:35;;;;;;;15.82;7.00;;;5.30;99.90;;;;;;5020926;28;20056;-66
2022/11/06 01:29:02;;;;;;;15.23;5.75;;;5.30;99.90;;;;;;5033794;28;20471;-66
2022/11/06 01:31:29;;;;;;;14.00;5.75;;;5.20;99.90;;;;;;5033239;28;20563;-67
2022/11/06 01:33:56;;;;;;;15.00;6.25;;;5.20;99.90;;;;;;5023146;28;20044;-67
2022/11/06 01:36:22;;;;;;;14.85;6.85;;;5.10;99.90;;;;;;5035801;28;20033;-66
2022/11/06 01:38:50;;;;;;;13.43;6.43;;;5.10;99.90;;;;;;5020328;28;20458;-67
2022/11/06 01:41:28;;;;;;;18.15;6.75;;;5.10;99.90;;;;;;5031913;28;20112;-67
2022/11/06 01:44:01;;;;;;;11.88;5.90;;;5.10;99.90;;;;;;5024064;28;20090;-67
2022/11/06 01:46:34;;;;;;;13.80;6.57;;;5.00;99.90;;;;;;5035824;28;20044;-67
2022/11/06 01:49:14;;;;;;;16.00;6.77;;;5.00;99.90;;;;;;5018399;28;20026;-66
2022/11/06 01:51:44;;;;;;;15.73;7.45;;;5.00;99.90;;;;;;5013784;28;20036;-66
2022/11/06 01:54:11;;;;;;;10.27;5.78;;;5.00;99.90;;;;;;5019560;28;20076;-66
2022/11/06 01:56:38;;;;;;;13.95;6.75;;;5.00;99.90;;;;;;5024502;28;20053;-66
2022/11/06 01:59:06;;;;;;;16.30;6.18;;;5.00;99.90;;;;;;5021900;28;20029;-67
2022/11/06 02:01:32;;;;;;;17.40;6.88;;;5.00;99.90;;;;;;5012595;28;20033;-66
2022/11/06 02:04:08;;;;;;;15.15;7.40;;;4.90;99.90;;;;;;5027313;28;20895;-66
2022/11/06 02:06:34;;;;;;;15.07;5.72;;;4.90;99.90;;;;;;5012552;28;20132;-66
2022/11/06 02:09:00;;;;;;;13.80;6.35;;;4.90;99.90;;;;;;5033444;28;20559;-66
2022/11/06 02:11:27;;;;;;;12.80;6.18;;;4.90;99.90;;;;;;5029970;28;20045;-66
2022/11/06 02:14:31;;;;;;;17.80;6.40;;;4.90;99.90;;;;;;5022574;28;20068;-66
2022/11/06 02:17:20;;;;;;;16.38;6.78;;;4.90;99.90;;;;;;5015951;28;20030;-66
2022/11/06 02:19:55;;;;;;;7.97;5.35;;;4.80;99.90;;;;;;5026677;28;20033;-67
2022/11/06 02:22:45;;;;;;;12.25;5.95;;;4.90;99.90;;;;;;5028022;28;20505;-66
2022/11/06 02:25:45;;;;;;;20.05;5.93;;;4.80;99.90;;;;;;5029861;28;20029;-66
2022/11/06 02:28:27;;;;;;;16.42;6.15;;;4.80;99.90;;;;;;4994474;28;20052;-66
2022/11/06 02:30:55;;;;;;;14.90;6.57;;;4.80;99.90;;;;;;5015078;28;20026;-66
2022/11/06 02:33:28;;;;;;;14.05;5.55;;;4.80;99.90;;;;;;5021395;28;20038;-65
2022/11/06 02:36:10;;;;;;;13.00;7.43;;;4.80;99.90;;;;;;5018326;28;20021;-66
2022/11/06 02:38:40;;;;;;;14.75;7.10;;;4.80;99.90;;;;;;5029771;28;20052;-67
2022/11/06 02:41:16;;;;;;;12.40;6.50;;;4.90;99.90;;;;;;5026990;28;20078;-66
2022/11/06 02:43:47;;;;;;;17.48;6.70;;;4.90;99.90;;;;;;5030520;28;20036;-66
2022/11/06 02:46:38;;;;;;;17.52;5.93;;;5.00;99.90;;;;;;5007782;28;20123;-66
2022/11/06 02:49:18;;;;;;;16.10;5.63;;;5.00;99.90;;;;;;5017050;28;20037;-66
2022/11/06 02:51:52;;;;;;;14.30;5.97;;;5.00;99.90;;;;;;5012328;28;20033;-66
2022/11/06 02:54:20;;;;;;;11.77;6.03;;;5.00;99.90;;;;;;5019563;28;20069;-67
2022/11/06 02:56:50;;;;;;;10.88;5.00;;;5.00;99.90;;;;;;5020015;28;20029;-67
2022/11/06 02:59:38;;;;;;;16.90;6.28;;;5.00;99.90;;;;;;5021345;28;20040;-67
2022/11/06 03:02:07;;;;;;;11.55;5.28;;;5.00;99.90;;;;;;5011229;28;20104;-66
2022/11/06 03:04:41;;;;;;;12.77;5.78;;;5.00;99.90;;;;;;4999865;28;20035;-65
2022/11/06 03:07:33;;;;;;;12.80;5.68;;;5.00;99.90;;;;;;5012619;28;20030;-65
2022/11/06 03:09:59;;;;;;;15.35;5.93;;;5.00;99.90;;;;;;5006195;28;20054;-67
2022/11/06 03:12:42;;;;;;;9.80;4.90;;;5.00;99.90;;;;;;5019222;28;20075;-66
2022/11/06 03:15:44;;;;;;;15.57;5.88;;;5.00;99.90;;;;;;5016020;28;20025;-66
2022/11/06 03:18:36;;;;;;;11.68;5.20;;;5.00;99.90;;;;;;4982997;28;20038;-66
2022/11/06 03:21:12;;;;;;;14.88;6.20;;;5.00;99.90;;;;;;4979458;28;20056;-66
2022/11/06 03:23:52;;;;;;;14.90;4.88;;;5.00;99.90;;;;;;5008281;28;20113;-66
2022/11/06 03:26:28;;;;;;;10.82;5.05;;;5.00;99.90;;;;;;5016632;28;20045;-66
2022/11/06 03:29:04;;;;;;;13.75;4.65;;;5.00;99.90;;;;;;5022109;28;20416;-66
2022/11/06 03:31:35;;;;;;;15.20;5.60;;;5.00;99.90;;;;;;5010233;28;20034;-66
2022/11/06 03:34:06;;;;;;;14.57;5.00;;;5.10;99.90;;;;;;5018679;28;20037;-67
2022/11/06 03:36:51;;;;;;;9.00;5.47;;;5.10;99.90;;;;;;5017628;28;20031;-66
2022/11/06 03:39:24;;;;;;;12.18;5.65;;;5.10;99.90;;;;;;5019894;28;20041;-66
2022/11/06 03:42:13;;;;;;;14.45;5.07;;;5.10;99.90;;;;;;5004388;28;20030;-65
2022/11/06 03:44:45;;;;;;;10.27;4.70;;;5.00;99.90;;;;;;5014481;28;20052;-66
2022/11/06 03:47:35;;;;;;;10.52;4.70;;;5.00;99.90;;;;;;5021328;28;20040;-65
2022/11/06 03:50:30;;;;;;;9.32;4.40;;;4.90;99.90;;;;;;5029213;28;20108;-66
2022/11/06 03:53:19;;;;;;;13.90;4.38;;;4.90;99.90;;;;;;5030818;28;20721;-66
2022/11/06 03:55:53;;;;;;;14.30;4.70;;;4.90;99.90;;;;;;5013679;28;20067;-67
2022/11/06 03:58:27;;;;;;;13.02;4.30;;;4.90;99.90;;;;;;5040377;28;20108;-67
2022/11/06 04:00:55;;;;;;;11.40;4.53;;;4.90;99.90;;;;;;5017185;28;20041;-66
2022/11/06 04:04:11;;;;;;;14.02;4.93;;;4.90;99.90;;;;;;5019773;28;20056;-67
2022/11/06 04:06:45;;;;;;;12.93;5.05;;;5.00;99.90;;;;;;4999105;28;20079;-66
2022/11/06 04:14:51;;;;;;;9.00;4.45;;;5.10;99.90;;;;;;5011828;28;20033;-66
2022/11/06 04:17:18;;;;;;;9.75;3.92;;;5.00;99.90;;;;;;5018878;28;20029;-65
2022/11/06 04:19:56;;;;;;;12.30;4.53;;;5.00;99.90;;;;;;5025249;28;20437;-67
2022/11/06 04:22:36;;;;;;;8.10;3.33;;;4.90;99.90;;;;;;5027514;28;20091;-67
2022/11/06 04:28:23;;;;;;;10.52;4.25;;;4.90;99.90;;;;;;5033115;28;20045;-66
2022/11/06 04:30:54;;;;;;;12.50;5.35;;;4.90;99.90;;;;;;5042104;28;20055;-67
2022/11/06 04:33:47;;;;;;;10.32;4.93;;;4.90;99.90;;;;;;5033862;28;20029;-66
2022/11/06 04:36:50;;;;;;;9.50;4.32;;;4.90;99.90;;;;;;5026047;28;20034;-66
2022/11/06 04:39:16;;;;;;;9.73;3.80;;;4.90;99.90;;;;;;5019224;28;20026;-66
2022/11/06 04:42:05;;;;;;;5.97;3.95;;;5.00;99.90;;;;;;5038412;28;20142;-66
2022/11/06 04:44:42;;;;;;;12.18;3.70;;;5.10;99.90;;;;;;5041257;28;20029;-66
2022/11/06 04:47:11;;;;;;;9.60;3.83;;;5.10;99.90;;;;;;5024577;28;20626;-67
2022/11/06 04:49:39;;;;;;;18.52;4.57;;;5.20;99.90;;;;;;5032382;28;20026;-66
2022/11/06 04:52:10;;;;;;;9.63;3.72;;;5.20;99.90;;;;;;5031024;28;20036;-66
2022/11/06 04:54:35;;;;;;;7.28;3.78;;;5.20;99.90;;;;;;5028098;28;20029;-66
2022/11/06 04:57:02;;;;;;;15.23;4.15;;;5.20;99.90;;;;;;5023321;28;20033;-66
2022/11/06 04:59:30;;;;;;;11.43;3.65;;;5.10;99.90;;;;;;5021496;28;20406;-66
2022/11/06 05:01:56;;;;;;;9.05;4.00;;;5.10;99.90;;;;;;5022113;28;20029;-65
2022/11/06 05:04:21;;;;;;;7.68;3.00;;;5.00;99.90;;;;;;5021103;28;20038;-66
2022/11/06 05:06:47;;;;;;;15.40;3.47;;;5.10;99.90;;;;;;4999964;28;20125;-67
2022/11/06 05:09:13;;;;;;;7.05;3.38;;;5.00;99.90;;;;;;5021477;28;20030;-66
2022/11/06 05:11:38;;;;;;;13.13;4.07;;;4.90;99.90;;;;;;5015726;28;20073;-66
2022/11/06 05:14:04;;;;;;;13.38;3.45;;;5.00;99.90;;;;;;5026539;28;20481;-67
2022/11/06 05:16:29;;;;;;;7.95;4.30;;;4.90;99.90;;;;;;5022853;28;20044;-67
2022/11/06 05:18:55;;;;;;;8.98;3.30;;;4.90;99.90;;;;;;5027834;28;20025;-66
2022/11/06 05:24:05;;;;;;;9.60;3.33;;;4.80;99.90;;;;;;5028551;28;20036;-66
2022/11/06 05:26:31;;;;;;;10.23;3.58;;;4.80;99.90;;;;;;5015818;28;20036;-66
2022/11/06 05:28:57;;;;;;;9.90;3.95;;;4.70;99.90;;;;;;5037364;28;20029;-67
2022/11/06 05:31:23;;;;;;;13.88;4.53;;;4.70;99.90;;;;;;5044217;28;20025;-67
2022/11/06 05:33:49;;;;;;;9.60;3.53;;;4.70;99.90;;;;;;5032019;28;20064;-66
2022/11/06 05:36:14;;;;;;;8.13;3.30;;;4.80;99.90;;;;;;5034058;28;20029;-68
2022/11/06 05:38:40;;;;;;;14.43;3.50;;;4.80;99.90;;;;;;5026922;28;20028;-67
2022/11/06 05:41:06;;;;;;;11.15;3.90;;;4.80;99.90;;;;;;5018031;28;20025;-66
2022/11/06 05:43:31;;;;;;;11.98;3.63;;;4.90;99.90;;;;;;5036838;28;20081;-67
2022/11/06 05:45:59;;;;;;;14.10;3.25;;;4.90;99.90;;;;;;5021291;28;20026;-67
2022/11/06 05:48:25;;;;;;;9.43;3.10;;;4.90;99.90;;;;;;5025650;28;20116;-67
2022/11/06 05:50:51;;;;;;;10.93;3.40;;;5.00;99.90;;;;;;5037942;28;20025;-67
2022/11/06 05:53:17;;;;;;;12.00;3.70;;;5.00;99.90;;;;;;5025197;28;20041;-66
2022/11/06 05:55:45;;;;;;;7.38;3.20;;;5.10;99.90;;;;;;5017935;28;20051;-67
2022/11/06 05:58:11;;;;;;;9.07;2.63;;;5.10;99.90;;;;;;5019562;28;20026;-66
2022/11/06 06:00:36;;;;;;;13.60;3.53;;;5.10;99.90;;;;;;5025058;28;20033;-68
2022/11/06 06:03:02;;;;;;;9.30;3.08;;;5.20;99.90;;;;;;5022185;28;20084;-67
2022/11/06 06:05:27;;;;;;;9.55;2.70;;;5.20;99.90;;;;;;5005376;28;20037;-67
2022/11/06 06:07:53;;;;;;;6.75;2.90;;;5.20;99.90;;;;;;5028327;28;20390;-65
2022/11/06 06:10:19;;;;;;;13.32;3.30;;;5.10;99.90;;;;;;5015406;28;20506;-67
2022/11/06 06:12:44;;;;;;;9.75;3.13;;;5.10;99.90;;;;;;5020371;28;20048;-66
2022/11/06 06:15:10;;;;;;;9.52;2.92;;;5.10;99.90;;;;;;5026266;28;20097;-67
2022/11/06 06:17:36;;;;;;;8.32;2.40;;;5.10;99.90;;;;;;5020034;28;20066;-67
2022/11/06 06:20:01;;;;;;;9.20;2.80;;;5.10;99.90;;;;;;5018503;28;20104;-67
2022/11/06 06:22:27;;;;;;;9.15;2.75;;;5.10;99.90;;;;;;5021359;28;20036;-68
2022/11/06 06:24:52;;;;;;;6.03;3.25;;;5.00;99.90;;;;;;5017545;28;20025;-68
2022/11/06 06:27:18;;;;;;;8.75;2.42;;;5.00;99.90;;;;;;5023555;28;20030;-67
2022/11/06 06:29:44;;;;;;;8.98;2.38;;;5.00;99.90;;;;;;5017868;28;20026;-67
2022/11/06 06:32:09;;;;;;;6.88;2.72;;;5.00;99.90;;;;;;5018246;28;20070;-66
2022/11/06 06:34:35;;;;;;;4.97;2.70;;;5.00;99.90;;;;;;5020649;28;21568;-67
2022/11/06 06:37:01;;;;;;;9.60;2.50;;;5.10;99.90;;;;;;5019599;28;20048;-68
2022/11/06 06:39:26;;;;;;;12.30;2.47;;;5.10;99.90;;;;;;5021041;28;20029;-68
2022/11/06 06:41:52;;;;;;;6.70;2.72;;;5.20;99.90;;;;;;5025957;28;20017;-67
2022/11/06 06:44:17;;;;;;;4.30;2.30;;;5.20;99.90;;;;;;5030378;28;20442;-66
2022/11/06 06:46:43;;;;;;;14.50;3.13;;;5.30;99.90;;;;;;5037001;28;20038;-67
2022/11/06 06:49:08;;;;;;;13.45;3.55;;;5.30;99.90;;;;;;5038029;28;20069;-67
2022/11/06 06:51:34;;;;;;;22.10;7.60;;;5.30;99.90;;;;;;5027397;28;20534;-66
2022/11/06 06:54:00;;;;;;;19.13;6.85;;;5.30;99.90;;;;;;5034734;28;20030;-67
2022/11/06 06:56:25;;;;;;;18.90;6.85;;;5.30;99.90;;;;;;5037935;28;20022;-67
2022/11/06 06:58:54;;;;;;;15.65;5.00;;;5.30;99.90;;;;;;5029732;28;20510;-66
2022/11/06 07:01:21;;;;;;;14.27;4.03;;;5.30;99.90;;;;;;5030905;28;20022;-67
2022/11/06 07:03:47;;;;;;;18.63;3.20;;;5.50;99.90;;;;;;5038705;28;20041;-66
2022/11/06 07:06:12;;;;;;;5.65;2.83;;;5.50;99.90;;;;;;5008592;28;20561;-68
2022/11/06 07:08:38;;;;;;;9.65;2.83;;;5.60;99.90;;;;;;5026368;28;20032;-67
2022/11/06 07:11:06;;;;;;;11.52;2.33;;;5.60;99.90;;;;;;5029909;28;20414;-67
2022/11/06 07:13:32;;;;;;;12.50;3.70;;;5.70;99.90;;;;;;5024913;28;20033;-67
2022/11/06 07:15:58;;;;;;;15.75;3.55;;;5.70;99.90;;;;;;5029591;28;20510;-66
2022/11/06 07:18:24;;;;;;;5.38;2.60;;;5.80;99.90;;;;;;5025064;28;20022;-67
2022/11/06 07:20:50;;;;;;;9.95;4.78;;;5.80;99.90;;;;;;5034755;28;20095;-67
2022/11/06 07:23:16;;;;;;;5.60;2.63;;;5.90;99.90;;;;;;5031699;28;20088;-68
2022/11/06 07:25:41;;;;;;;8.57;3.30;;;5.90;99.90;;;;;;5015994;28;20487;-67
2022/11/06 07:28:07;;;;;;;7.55;2.63;;;6.00;99.90;;;;;;5017291;28;20061;-68
2022/11/06 07:30:34;;;;;;;12.15;2.95;;;6.10;99.90;;;;;;5039539;28;20033;-67
2022/11/06 07:33:01;;;;;;;10.07;2.95;;;6.20;99.90;;;;;;5029527;28;20022;-67
2022/11/06 07:35:27;;;;;;;5.00;2.65;;;6.20;99.90;;;;;;5022294;28;20044;-68
2022/11/06 07:37:53;;;;;;;10.75;2.60;;;6.30;99.90;;;;;;5045055;28;20013;-66
2022/11/06 07:40:18;;;;;;;9.63;3.08;;;6.40;99.90;;;;;;5022588;28;20432;-68
2022/11/06 07:42:44;;;;;;;12.65;3.08;;;6.50;99.90;;;;;;5042376;28;20017;-67
2022/11/06 07:45:09;;;;;;;5.03;3.13;;;6.60;99.90;;;;;;5034981;28;20503;-67
2022/11/06 07:47:35;;;;;;;9.88;2.50;;;6.70;99.90;;;;;;5030884;28;20052;-67
2022/11/06 07:50:01;;;;;;;12.18;2.65;;;6.70;99.90;;;;;;5038040;28;20037;-67
2022/11/06 07:52:26;;;;;;;9.25;2.30;;;6.80;99.90;;;;;;5034352;28;20083;-68
2022/11/06 07:54:52;;;;;;;14.65;3.63;;;6.80;99.90;;;;;;5025489;28;20184;-66
2022/11/06 07:57:18;;;;;;;10.55;2.88;;;6.90;99.90;;;;;;5021494;28;20554;-66
2022/11/06 07:59:43;;;;;;;6.55;3.10;;;7.00;99.90;;;;;;5029535;28;20507;-67
2022/11/06 08:02:11;;;;;;;8.95;2.80;;;7.00;99.90;;;;;;5020491;28;20108;-66
2022/11/06 08:04:37;;;;;;;9.43;2.63;;;7.10;99.90;;;;;;5035514;28;20427;-67
2022/11/06 08:07:03;;;;;;;14.70;2.90;;;7.10;99.90;;;;;;5010390;28;20102;-67
2022/11/06 08:09:28;;;;;;;8.60;2.58;;;7.20;99.90;;;;;;5018202;28;20025;-65
2022/11/06 08:11:54;;;;;;;13.55;2.63;;;7.30;99.90;;;;;;5020334;28;20447;-67
2022/11/06 08:14:19;;;;;;;7.15;2.65;;;7.40;99.90;;;;;;5025195;28;20125;-67
2022/11/06 08:16:45;;;;;;;12.60;2.13;;;7.40;99.90;;;;;;5033983;28;20436;-67
2022/11/06 08:19:10;;;;;;;7.65;3.05;;;7.60;99.90;;;;;;5036248;28;20036;-67
2022/11/06 08:21:36;;;;;;;7.60;3.25;;;7.70;99.90;;;;;;5030818;28;20096;-67
2022/11/06 08:24:02;;;;;;;8.35;2.97;;;7.80;99.90;;;;;;5031690;28;20787;-66
2022/11/06 08:26:28;;;;;;;13.63;2.85;;;7.90;99.90;;;;;;5018745;28;20141;-67
2022/11/06 08:28:53;;;;;;;8.52;2.53;;;8.00;99.90;;;;;;5030443;28;20100;-67
2022/11/06 08:31:19;;;;;;;7.55;2.50;;;8.10;99.90;;;;;;5023594;28;20040;-68
2022/11/06 08:33:46;;;;;;;10.85;2.90;;;8.10;99.90;;;;;;5027996;28;20060;-68
2022/11/06 08:36:11;;;;;;;10.32;2.45;;;8.20;99.90;;;;;;5039824;28;20372;-67
2022/11/06 08:38:37;;;;;;;5.60;2.30;;;8.20;99.90;;;;;;5027725;28;20032;-68
2022/11/06 08:41:07;;;;;;;12.32;3.63;;;8.30;99.90;;;;;;5025840;28;20649;-67
2022/11/06 08:43:34;;;;;;;11.63;2.92;;;8.30;99.90;;;;;;5030015;28;20028;-66
2022/11/06 08:45:59;;;;;;;9.40;2.58;;;8.30;99.90;;;;;;5027231;28;20025;-68
2022/11/06 08:48:25;;;;;;;8.50;2.65;;;8.30;99.90;;;;;;5036731;28;20084;-67
2022/11/06 08:50:50;;;;;;;8.57;2.63;;;8.40;99.90;;;;;;5038838;28;20033;-66
2022/11/06 08:53:16;;;;;;;8.52;2.80;;;8.50;99.90;;;;;;5026641;28;20044;-67
2022/11/06 08:55:42;;;;;;;10.68;2.55;;;8.70;99.90;;;;;;5020337;28;20022;-67
2022/11/06 08:58:08;;;;;;;6.00;2.58;;;8.80;99.90;;;;;;5025305;28;20021;-67
2022/11/06 09:00:34;;;;;;;5.50;2.72;;;8.80;99.90;;;;;;5032169;28;20017;-68
2022/11/06 09:03:05;;;;;;;7.93;2.95;;;8.90;99.90;;;;;;5037753;28;20086;-67
2022/11/06 09:05:31;;;;;;;7.28;2.95;;;8.90;99.90;;;;;;5013998;28;20036;-67
2022/11/06 09:07:58;;;;;;;9.68;3.08;;;9.00;99.90;;;;;;5034183;28;20136;-67
2022/11/06 09:10:24;;;;;;;4.18;2.00;;;9.00;99.90;;;;;;5017213;28;20521;-66
2022/11/06 09:12:50;;;;;;;10.70;2.45;;;9.00;99.90;;;;;;5023207;28;20038;-67
2022/11/06 09:15:16;;;;;;;6.10;2.47;;;9.10;99.90;;;;;;5036118;28;20052;-67
2022/11/06 09:17:45;;;;;;;8.25;2.08;;;9.20;99.90;;;;;;5032419;28;20091;-66
2022/11/06 09:20:13;;;;;;;8.63;2.17;;;9.50;99.90;;;;;;5025404;28;20422;-68
2022/11/06 09:22:39;;;;;;;18.58;2.72;;;10.00;99.90;;;;;;5015319;28;20029;-68
2022/11/06 09:25:05;;;;;;;10.55;2.35;;;10.30;99.90;;;;;;5013381;28;20033;-67
2022/11/06 09:27:31;;;;;;;3.33;1.65;;;10.40;99.90;;;;;;5022208;28;20025;-67
2022/11/06 09:29:57;;;;;;;9.23;2.30;;;10.80;99.90;;;;;;5027655;28;20052;-68
2022/11/06 09:32:23;;;;;;;7.28;2.42;;;11.10;99.90;;;;;;5021930;28;20514;-67
2022/11/06 09:34:49;;;;;;;5.85;2.13;;;11.20;99.90;;;;;;5026106;28;20021;-68
2022/11/06 09:37:14;;;;;;;7.53;2.22;;;11.40;99.90;;;;;;5017910;28;20069;-67
2022/11/06 09:39:40;;;;;;;6.75;2.55;;;11.60;99.90;;;;;;5017151;28;20519;-68
2022/11/06 09:42:11;;;;;;;5.07;2.33;;;11.50;99.90;;;;;;5027093;28;20542;-68
2022/11/06 09:44:55;;;;;;;9.57;2.67;;;11.70;99.90;;;;;;5021933;28;20025;-67
2022/11/06 09:47:25;;;;;;;;;;;11.80;99.90;;;;;;5020876;28;20033;-68
2022/11/06 09:49:54;;;;;;;4.20;2.63;;;11.70;99.90;;;;;;5021720;28;19909;-66
2022/11/06 09:52:36;;;;;;;8.43;2.13;;;11.50;99.90;;;;;;5030332;28;20087;-67
2022/11/06 09:55:13;;;;;;;6.13;2.85;;;11.20;99.90;;;;;;5024619;28;20072;-67
2022/11/06 09:58:11;;;;;;;4.70;2.42;;;11.00;99.90;;;;;;5022288;28;20531;-66
2022/11/06 10:00:38;;;;;;;5.88;2.35;;;10.80;99.90;;;;;;5031687;28;20049;-66
2022/11/06 10:03:09;;;;;;;7.75;2.72;;;10.80;99.90;;;;;;5013957;28;20365;-68
2022/11/06 10:05:40;;;;;;;5.15;1.83;;;10.80;99.90;;;;;;5002392;28;20026;-67
2022/11/06 10:08:26;;;;;;;8.68;2.40;;;10.90;99.90;;;;;;5040060;28;20560;-68
2022/11/06 10:11:01;;;;;;;7.35;2.50;;;11.00;99.90;;;;;;5012960;28;20446;-68
2022/11/06 10:13:35;;;;;;;4.97;2.13;;;11.30;99.90;;;;;;5025014;28;20026;-67
2022/11/06 10:16:24;;;;;;;8.68;2.70;;;11.50;99.90;;;;;;5015900;28;20522;-67
2022/11/06 10:19:04;;;;;;;6.10;2.15;;;11.40;99.90;;;;;;5019606;28;20545;-67
2022/11/06 10:21:53;;;;;;;6.43;2.20;;;11.50;99.90;;;;;;5036621;28;20033;-68
2022/11/06 10:24:46;;;;;;;6.38;2.15;;;11.30;99.90;;;;;;5001868;28;20045;-68
2022/11/06 10:27:17;;;;;;;13.57;2.92;;;11.30;99.90;;;;;;5012129;28;20053;-68
2022/11/06 10:30:05;;;;;;;11.02;3.45;;;11.10;99.90;;;;;;5022573;28;20029;-67
2022/11/06 10:32:39;;;;;;;11.13;3.40;;;11.00;99.90;;;;;;5012513;28;20025;-67
2022/11/06 10:35:18;;;;;;;9.00;3.22;;;10.90;99.90;;;;;;5014269;28;20028;-67
2022/11/06 10:38:02;;;;;;;7.72;2.97;;;10.90;99.90;;;;;;5011826;28;20033;-67
2022/11/06 10:40:30;;;;;;;4.97;2.63;;;10.80;99.90;;;;;;5015311;28;20061;-66
2022/11/06 10:43:19;;;;;;;2.53;1.52;;;10.80;99.90;;;;;;5028865;28;20569;-66
2022/11/06 10:45:51;;;;;;;5.03;2.50;;;10.70;99.90;;;;;;5020027;28;20022;-66
2022/11/06 10:48:26;;;;;;;6.75;2.00;;;10.70;99.90;;;;;;5021585;28;20125;-67
2022/11/06 10:50:57;;;;;;;5.45;2.00;;;10.80;99.90;;;;;;5030977;28;20152;-67
2022/11/06 10:53:40;;;;;;;2.90;1.60;;;10.90;99.90;;;;;;5030289;28;20034;-67
2022/11/06 10:56:20;;;;;;;8.02;2.70;;;11.00;99.90;;;;;;5020394;28;20133;-68
2022/11/06 10:58:46;;;;;;;5.85;2.35;;;11.10;99.90;;;;;;5020251;28;20040;-68
2022/11/06 11:01:13;;;;;;;6.40;2.95;;;11.20;99.90;;;;;;5031923;28;20041;-69
2022/11/06 11:03:42;;;;;;;12.25;3.60;;;11.30;99.90;;;;;;5025024;28;20029;-66
2022/11/06 11:06:08;;;;;;;5.15;1.92;;;11.40;99.90;;;;;;5010243;28;20496;-68
2022/11/06 11:08:41;;;;;;;7.28;2.63;;;11.30;99.90;;;;;;5018667;28;20034;-66
2022/11/06 11:11:26;;;;;;;4.25;2.22;;;11.30;99.90;;;;;;5022100;28;20041;-69
2022/11/06 11:13:55;;;;;;;7.72;2.72;;;11.20;99.90;;;;;;5026309;28;20033;-67
2022/11/06 11:16:27;;;;;;;3.50;1.83;;;11.40;99.90;;;;;;5021166;28;20447;-67
2022/11/06 11:18:53;;;;;;;5.00;1.92;;;11.40;99.90;;;;;;5021897;28;20398;-67
2022/11/06 11:21:18;;;;;;;7.45;2.97;;;11.50;99.90;;;;;;5023386;28;20026;-67
2022/11/06 11:24:05;;;;;;;5.82;2.72;;;11.60;99.90;;;;;;5037222;28;20025;-67
2022/11/06 11:26:35;;;;;;;6.10;1.83;;;11.70;99.90;;;;;;5034790;28;20041;-67
2022/11/06 11:29:15;;;;;;;2.60;1.42;;;11.80;99.90;;;;;;5030039;28;20029;-67
2022/11/06 11:31:45;;;;;;;6.35;2.13;;;11.90;99.90;;;;;;5022415;28;20025;-66
2022/11/06 11:34:19;;;;;;;2.88;1.80;;;11.90;99.90;;;;;;5021551;28;20174;-67
2022/11/06 11:36:50;;;;;;;5.35;1.90;;;11.80;99.90;;;;;;5037039;28;20025;-68
2022/11/06 11:39:18;;;;;;;2.42;1.35;;;11.80;99.90;;;;;;5019748;28;20022;-67
2022/11/06 11:41:44;;;;;;;2.20;1.50;;;11.80;99.90;;;;;;5026983;28;20420;-68
2022/11/06 11:44:16;;;;;;;6.75;2.45;;;11.80;99.90;;;;;;5023010;28;20132;-66
2022/11/06 11:46:53;;;;;;;3.58;1.73;;;11.80;99.90;;;;;;5032222;28;20467;-67
2022/11/06 11:49:25;;;;;;;7.82;1.70;;;11.70;99.90;;;;;;5021676;28;20043;-68
2022/11/06 11:51:50;;;;;;;6.35;1.85;;;11.70;99.90;;;;;;5020471;28;20033;-69
2022/11/06 11:54:20;;;;;;;2.35;1.50;;;11.70;99.90;;;;;;5016876;28;20030;-68
2022/11/06 11:56:53;;;;;;;4.50;1.60;;;11.70;99.90;;;;;;5024415;28;20104;-67
2022/11/06 11:59:50;;;;;;;8.70;2.05;;;11.80;99.90;;;;;;5020622;28;20030;-68
2022/11/06 12:02:31;;;;;;;6.72;1.65;;;11.90;99.90;;;;;;5032526;28;20021;-68
2022/11/06 12:05:06;;;;;;;2.92;1.83;;;12.00;99.90;;;;;;5022173;28;20119;-67
2022/11/06 12:07:35;;;;;;;3.72;1.52;;;11.90;99.90;;;;;;5022534;23;20054;-65
2022/11/06 12:10:15;;;;;;;4.13;1.70;;;12.00;99.90;;;;;;4997437;28;20033;-65
2022/11/06 12:12:48;;;;;;;13.85;2.20;;;12.10;99.90;;;;;;4991980;28;20026;-64
2022/11/06 12:15:22;;;;;;;4.28;1.58;;;12.20;99.90;;;;;;4995606;28;20042;-64
2022/11/06 12:18:00;;;;;;;3.63;2.03;;;12.30;99.90;;;;;;4964521;28;20121;-65
2022/11/06 12:20:41;;;;;;;5.57;1.67;;;12.40;99.90;;;;;;4997699;28;20089;-64
2022/11/06 12:23:18;;;;;;;3.33;1.48;;;12.40;99.90;;;;;;5005312;28;20092;-65
2022/11/06 12:25:57;;;;;;;3.42;1.23;;;12.60;99.90;;;;;;4984396;28;20093;-64
2022/11/06 12:28:24;;;;;;;7.78;1.20;;;12.70;99.90;;;;;;4984832;28;20019;-65
2022/11/06 12:30:59;;;;;;;5.97;1.67;;;12.80;99.90;;;;;;4983352;28;21957;-65
2022/11/06 12:33:27;;;;;;;2.83;1.42;;;12.70;99.90;;;;;;4981818;28;20019;-65
2022/11/06 12:35:59;;;;;;;3.70;1.60;;;12.70;99.90;;;;;;4999568;28;20025;-65
2022/11/06 12:38:34;;;;;;;2.58;1.25;;;12.70;99.90;;;;;;4987440;28;20025;-65
2022/11/06 12:41:20;;;;;;;3.05;1.88;;;12.50;99.90;;;;;;4985820;28;20515;-65
2022/11/06 12:43:48;;;;;;;6.47;1.90;;;12.50;99.90;;;;;;4982556;28;20034;-64
2022/11/06 12:46:36;;;;;;;1.65;1.15;;;12.40;99.90;;;;;;4987900;28;20369;-65
2022/11/06 12:49:29;;;;;;;3.75;1.13;;;12.30;99.90;;;;;;4981755;28;20520;-65
2022/11/06 12:52:13;;;;;;;2.97;1.27;;;12.20;99.90;;;;;;4985896;28;20033;-65
2022/11/06 12:54:48;;;;;;;;;;;12.30;99.90;;;;;;5000022;28;20032;-65
2022/11/06 12:57:40;;;;;;;3.80;1.33;;;12.30;99.90;;;;;;5003348;28;20353;-64
2022/11/06 13:00:17;;;;;;;4.50;1.58;;;12.40;99.90;;;;;;4990007;28;20022;-65
2022/11/06 13:03:04;;;;;;;4.82;1.42;;;12.40;99.90;;;;;;4982729;28;20024;-65
2022/11/06 13:05:39;;;;;;;2.13;1.33;;;12.50;99.90;;;;;;5006025;28;20101;-65
2022/11/06 13:08:43;;;;;;;4.60;1.42;;;12.50;99.90;;;;;;4999239;28;20497;-64
2022/11/06 13:11:15;;;;;;;3.28;1.38;;;12.50;99.90;;;;;;4990749;28;20070;-64
2022/11/06 13:14:08;;;;;;;3.63;1.40;;;12.40;99.90;;;;;;4988626;28;20025;-65
2022/11/06 13:16:36;;;;;;;5.55;1.52;;;12.30;99.90;;;;;;4979313;28;20511;-64
2022/11/06 13:19:14;;;;;;;7.32;1.58;;;12.40;99.90;;;;;;4992321;28;20034;-64
2022/11/06 13:22:01;;;;;;;4.13;1.33;;;12.50;99.90;;;;;;4999936;28;20595;-65
2022/11/06 13:24:33;;;;;;;3.17;1.13;;;12.50;99.90;;;;;;4993332;28;20042;-64
2022/11/06 13:27:01;;;;;;;3.33;1.30;;;12.50;99.90;;;;;;4998262;28;20076;-65